sensor_id;sensor_type;location;lat;lon;timestamp;temperature;humidity
59098;DHT22;44883;52.760;6.610;2022-10-23T00:00:36;11.00;99.90
59098;DHT22;44883;52.760;6.610;2022-10-23T00:03:02;11.00;99.90
59098;DHT22;44883;52.760;6.610;2022-10-23T00:05:28;11.00;99.90
59098;DHT22;44883;52.760;6.610;2022-10-23T00:07:55;11.10;99.90
59098;DHT22;44883;52.760;6.610;2022-10-23T00:10:21;11.10;99.90
59098;DHT22;44883;52.760;6.610;2022-10-23T00:12:47;11.10;99.90
59098;DHT22;44883;52.760;6.610;2022-10-23T00:15:14;11.10;99.90
59098;DHT22;44883;52.760;6.610;2022-10-23T00:17:40;11.10;99.90
59098;DHT22;44883;52.760;6.610;2022-10-23T00:20:06;11.10;99.90
59098;DHT22;44883;52.760;6.610;2022-10-23T00:22:32;11.10;99.90
59098;DHT22;44883;52.760;6.610;2022-10-23T00:24:57;11.10;99.90
59098;DHT22;44883;52.760;6.610;2022-10-23T00:27:23;11.10;99.90
59098;DHT22;44883;52.760;6.610;2022-10-23T00:29:48;11.10;99.90
59098;DHT22;44883;52.760;6.610;2022-10-23T00:32:14;11.10;99.90
59098;DHT22;44883;52.760;6.610;2022-10-23T00:34:39;11.10;99.90
59098;DHT22;44883;52.760;6.610;2022-10-23T00:37:05;11.10;99.90
59098;DHT22;44883;52.760;6.610;2022-10-23T00:39:30;11.10;99.90
59098;DHT22;44883;52.760;6.610;2022-10-23T00:41:56;11.10;99.90
59098;DHT22;44883;52.760;6.610;2022-10-23T00:46:47;11.10;99.90
59098;DHT22;44883;52.760;6.610;2022-10-23T00:49:13;11.00;99.90
59098;DHT22;44883;52.760;6.610;2022-10-23T00:51:48;11.00;99.90
59098;DHT22;44883;52.760;6.610;2022-10-23T00:54:16;11.00;99.90
59098;DHT22;44883;52.760;6.610;2022-10-23T00:56:42;11.00;99.90
59098;DHT22;44883;52.760;6.610;2022-10-23T00:59:09;10.90;99.90
59098;DHT22;44883;52.760;6.610;2022-10-23T01:01:34;10.90;99.90
59098;DHT22;44883;52.760;6.610;2022-10-23T01:04:00;10.90;99.90
59098;DHT22;44883;52.760;6.610;2022-10-23T01:08:53;10.90;99.90
59098;DHT22;44883;52.760;6.610;2022-10-23T01:11:31;11.00;99.90
59098;DHT22;44883;52.760;6.610;2022-10-23T01:19:20;11.00;99.90
59098;DHT22;44883;52.760;6.610;2022-10-23T01:21:54;11.10;99.90
59098;DHT22;44883;52.760;6.610;2022-10-23T01:26:57;11.00;99.90
59098;DHT22;44883;52.760;6.610;2022-10-23T01:29:28;10.90;99.90
59098;DHT22;44883;52.760;6.610;2022-10-23T01:32:02;10.90;99.90
59098;DHT22;44883;52.760;6.610;2022-10-23T01:34:30;10.80;99.90
59098;DHT22;44883;52.760;6.610;2022-10-23T01:36:57;10.80;99.90
59098;DHT22;44883;52.760;6.610;2022-10-23T01:39:26;10.70;99.90
59098;DHT22;44883;52.760;6.610;2022-10-23T01:41:53;10.70;99.90
59098;DHT22;44883;52.760;6.610;2022-10-23T01:44:26;10.70;99.90
59098;DHT22;44883;52.760;6.610;2022-10-23T01:46:53;10.70;99.90
59098;DHT22;44883;52.760;6.610;2022-10-23T01:49:19;10.80;99.90
59098;DHT22;44883;52.760;6.610;2022-10-23T01:51:46;10.80;99.90
59098;DHT22;44883;52.760;6.610;2022-10-23T01:54:13;10.80;99.90
59098;DHT22;44883;52.760;6.610;2022-10-23T01:56:41;10.90;99.90
59098;DHT22;44883;52.760;6.610;2022-10-23T01:59:09;10.90;99.90
59098;DHT22;44883;52.760;6.610;2022-10-23T02:01:35;10.80;99.90
59098;DHT22;44883;52.760;6.610;2022-10-23T02:04:02;10.80;99.90
59098;DHT22;44883;52.760;6.610;2022-10-23T02:06:29;10.80;99.90
59098;DHT22;44883;52.760;6.610;2022-10-23T02:08:55;10.80;99.90
59098;DHT22;44883;52.760;6.610;2022-10-23T02:11:21;10.70;99.90
59098;DHT22;44883;52.760;6.610;2022-10-23T02:16:27;10.70;99.90
59098;DHT22;44883;52.760;6.610;2022-10-23T02:21:23;10.80;99.90
59098;DHT22;44883;52.760;6.610;2022-10-23T02:23:58;10.70;99.90
59098;DHT22;44883;52.760;6.610;2022-10-23T02:26:30;10.70;99.90
59098;DHT22;44883;52.760;6.610;2022-10-23T02:28:59;10.70;99.90
59098;DHT22;44883;52.760;6.610;2022-10-23T02:31:25;10.70;99.90
59098;DHT22;44883;52.760;6.610;2022-10-23T02:33:50;10.70;99.90
59098;DHT22;44883;52.760;6.610;2022-10-23T02:36:17;10.80;99.90
59098;DHT22;44883;52.760;6.610;2022-10-23T02:38:43;10.70;99.90
59098;DHT22;44883;52.760;6.610;2022-10-23T02:43:56;10.70;99.90
59098;DHT22;44883;52.760;6.610;2022-10-23T02:46:59;10.60;99.90
59098;DHT22;44883;52.760;6.610;2022-10-23T02:51:46;10.60;99.90
59098;DHT22;44883;52.760;6.610;2022-10-23T02:57:02;10.60;99.90
59098;DHT22;44883;52.760;6.610;2022-10-23T02:59:36;10.50;99.90
59098;DHT22;44883;52.760;6.610;2022-10-23T03:02:06;10.40;99.90
59098;DHT22;44883;52.760;6.610;2022-10-23T03:04:33;10.30;99.90
59098;DHT22;44883;52.760;6.610;2022-10-23T03:06:59;10.30;99.90
59098;DHT22;44883;52.760;6.610;2022-10-23T03:09:25;10.20;99.90
59098;DHT22;44883;52.760;6.610;2022-10-23T03:11:51;10.30;99.90
59098;DHT22;44883;52.760;6.610;2022-10-23T03:14:16;10.40;99.90
59098;DHT22;44883;52.760;6.610;2022-10-23T03:16:42;10.30;99.90
59098;DHT22;44883;52.760;6.610;2022-10-23T03:19:07;10.30;99.90
59098;DHT22;44883;52.760;6.610;2022-10-23T03:21:33;10.40;99.90
59098;DHT22;44883;52.760;6.610;2022-10-23T03:23:58;10.40;99.90
59098;DHT22;44883;52.760;6.610;2022-10-23T03:26:24;10.40;99.90
59098;DHT22;44883;52.760;6.610;2022-10-23T03:28:49;10.50;99.90
59098;DHT22;44883;52.760;6.610;2022-10-23T03:31:15;10.40;99.90
59098;DHT22;44883;52.760;6.610;2022-10-23T03:33:40;10.50;99.90
59098;DHT22;44883;52.760;6.610;2022-10-23T03:36:06;10.50;99.90
59098;DHT22;44883;52.760;6.610;2022-10-23T03:38:32;10.50;99.90
59098;DHT22;44883;52.760;6.610;2022-10-23T03:40:57;10.50;99.90
59098;DHT22;44883;52.760;6.610;2022-10-23T03:43:22;10.50;99.90
59098;DHT22;44883;52.760;6.610;2022-10-23T03:45:48;10.50;99.90
59098;DHT22;44883;52.760;6.610;2022-10-23T03:48:15;10.40;99.90
59098;DHT22;44883;52.760;6.610;2022-10-23T03:50:40;10.40;99.90
59098;DHT22;44883;52.760;6.610;2022-10-23T03:53:05;10.50;99.90
59098;DHT22;44883;52.760;6.610;2022-10-23T03:55:31;10.40;99.90
59098;DHT22;44883;52.760;6.610;2022-10-23T03:57:56;10.40;99.90
59098;DHT22;44883;52.760;6.610;2022-10-23T04:00:22;10.50;99.90
59098;DHT22;44883;52.760;6.610;2022-10-23T04:02:47;10.40;99.90
59098;DHT22;44883;52.760;6.610;2022-10-23T04:05:13;10.50;99.90
59098;DHT22;44883;52.760;6.610;2022-10-23T04:07:38;10.40;99.90
59098;DHT22;44883;52.760;6.610;2022-10-23T04:10:04;10.50;99.90
59098;DHT22;44883;52.760;6.610;2022-10-23T04:12:30;10.40;99.90
59098;DHT22;44883;52.760;6.610;2022-10-23T04:14:55;10.40;99.90
59098;DHT22;44883;52.760;6.610;2022-10-23T04:17:21;10.40;99.90
59098;DHT22;44883;52.760;6.610;2022-10-23T04:19:46;10.40;99.90
59098;DHT22;44883;52.760;6.610;2022-10-23T04:22:12;10.40;99.90
59098;DHT22;44883;52.760;6.610;2022-10-23T04:24:37;10.40;99.90
59098;DHT22;44883;52.760;6.610;2022-10-23T04:27:03;10.40;99.90
59098;DHT22;44883;52.760;6.610;2022-10-23T04:29:28;10.40;99.90
59098;DHT22;44883;52.760;6.610;2022-10-23T04:31:56;10.30;99.90
59098;DHT22;44883;52.760;6.610;2022-10-23T04:34:22;10.30;99.90
59098;DHT22;44883;52.760;6.610;2022-10-23T04:36:47;10.30;99.90
59098;DHT22;44883;52.760;6.610;2022-10-23T04:39:13;10.30;99.90
59098;DHT22;44883;52.760;6.610;2022-10-23T04:41:39;10.30;99.90
59098;DHT22;44883;52.760;6.610;2022-10-23T04:44:05;10.30;99.90
59098;DHT22;44883;52.760;6.610;2022-10-23T04:46:30;10.30;99.90
59098;DHT22;44883;52.760;6.610;2022-10-23T04:48:56;10.30;99.90
59098;DHT22;44883;52.760;6.610;2022-10-23T04:51:21;10.30;99.90
59098;DHT22;44883;52.760;6.610;2022-10-23T04:53:47;10.30;99.90
59098;DHT22;44883;52.760;6.610;2022-10-23T04:56:13;10.30;99.90
59098;DHT22;44883;52.760;6.610;2022-10-23T04:58:39;10.20;99.90
59098;DHT22;44883;52.760;6.610;2022-10-23T05:01:05;10.20;99.90
59098;DHT22;44883;52.760;6.610;2022-10-23T05:03:31;10.20;99.90
59098;DHT22;44883;52.760;6.610;2022-10-23T05:05:57;10.20;99.90
59098;DHT22;44883;52.760;6.610;2022-10-23T05:08:22;10.30;99.90
59098;DHT22;44883;52.760;6.610;2022-10-23T05:10:48;10.30;99.90
59098;DHT22;44883;52.760;6.610;2022-10-23T05:13:14;10.30;99.90
59098;DHT22;44883;52.760;6.610;2022-10-23T05:15:40;10.30;99.90
59098;DHT22;44883;52.760;6.610;2022-10-23T05:18:48;10.30;99.90
59098;DHT22;44883;52.760;6.610;2022-10-23T05:20:55;10.30;99.90
59098;DHT22;44883;52.760;6.610;2022-10-23T05:23:22;10.30;99.90
59098;DHT22;44883;52.760;6.610;2022-10-23T05:25:49;10.30;99.90
59098;DHT22;44883;52.760;6.610;2022-10-23T05:28:14;10.30;99.90
59098;DHT22;44883;52.760;6.610;2022-10-23T05:30:40;10.30;99.90
59098;DHT22;44883;52.760;6.610;2022-10-23T05:33:08;10.30;99.90
59098;DHT22;44883;52.760;6.610;2022-10-23T05:35:34;10.30;99.90
59098;DHT22;44883;52.760;6.610;2022-10-23T05:38:00;10.30;99.90
59098;DHT22;44883;52.760;6.610;2022-10-23T05:40:26;10.30;99.90
59098;DHT22;44883;52.760;6.610;2022-10-23T05:42:51;10.30;99.90
59098;DHT22;44883;52.760;6.610;2022-10-23T05:45:17;10.30;99.90
59098;DHT22;44883;52.760;6.610;2022-10-23T05:47:43;10.30;99.90
59098;DHT22;44883;52.760;6.610;2022-10-23T05:50:09;10.20;99.90
59098;DHT22;44883;52.760;6.610;2022-10-23T05:52:35;10.20;99.90
59098;DHT22;44883;52.760;6.610;2022-10-23T05:55:00;10.30;99.90
59098;DHT22;44883;52.760;6.610;2022-10-23T05:57:26;10.20;99.90
59098;DHT22;44883;52.760;6.610;2022-10-23T05:59:51;10.20;99.90
59098;DHT22;44883;52.760;6.610;2022-10-23T06:02:17;10.20;99.90
59098;DHT22;44883;52.760;6.610;2022-10-23T06:04:42;10.20;99.90
59098;DHT22;44883;52.760;6.610;2022-10-23T06:07:08;10.20;99.90
59098;DHT22;44883;52.760;6.610;2022-10-23T06:09:33;10.20;99.90
59098;DHT22;44883;52.760;6.610;2022-10-23T06:12:00;10.30;99.90
59098;DHT22;44883;52.760;6.610;2022-10-23T06:14:25;10.30;99.90
59098;DHT22;44883;52.760;6.610;2022-10-23T06:16:51;10.20;99.90
59098;DHT22;44883;52.760;6.610;2022-10-23T06:19:16;10.30;99.90
59098;DHT22;44883;52.760;6.610;2022-10-23T06:21:42;10.20;99.90
59098;DHT22;44883;52.760;6.610;2022-10-23T06:24:07;10.30;99.90
59098;DHT22;44883;52.760;6.610;2022-10-23T06:26:33;10.30;99.90
59098;DHT22;44883;52.760;6.610;2022-10-23T06:28:58;10.30;99.90
59098;DHT22;44883;52.760;6.610;2022-10-23T06:31:24;10.40;99.90
59098;DHT22;44883;52.760;6.610;2022-10-23T06:33:52;10.30;99.90
59098;DHT22;44883;52.760;6.610;2022-10-23T06:36:18;10.40;99.90
59098;DHT22;44883;52.760;6.610;2022-10-23T06:38:43;10.40;99.90
59098;DHT22;44883;52.760;6.610;2022-10-23T06:41:12;10.40;99.90
59098;DHT22;44883;52.760;6.610;2022-10-23T06:43:38;10.40;99.90
59098;DHT22;44883;52.760;6.610;2022-10-23T06:46:04;10.50;99.90
59098;DHT22;44883;52.760;6.610;2022-10-23T06:48:30;10.50;99.90
59098;DHT22;44883;52.760;6.610;2022-10-23T06:50:55;10.50;99.90
59098;DHT22;44883;52.760;6.610;2022-10-23T06:53:21;10.50;99.90
59098;DHT22;44883;52.760;6.610;2022-10-23T06:55:49;10.60;99.90
59098;DHT22;44883;52.760;6.610;2022-10-23T06:58:15;10.70;99.90
59098;DHT22;44883;52.760;6.610;2022-10-23T07:00:40;10.60;99.90
59098;DHT22;44883;52.760;6.610;2022-10-23T07:03:06;10.60;99.90
59098;DHT22;44883;52.760;6.610;2022-10-23T07:05:32;10.70;99.90
59098;DHT22;44883;52.760;6.610;2022-10-23T07:07:58;10.70;99.90
59098;DHT22;44883;52.760;6.610;2022-10-23T07:10:23;10.70;99.90
59098;DHT22;44883;52.760;6.610;2022-10-23T07:12:49;10.70;99.90
59098;DHT22;44883;52.760;6.610;2022-10-23T07:15:15;10.80;99.90
59098;DHT22;44883;52.760;6.610;2022-10-23T07:17:40;10.80;99.90
59098;DHT22;44883;52.760;6.610;2022-10-23T07:20:06;10.80;99.90
59098;DHT22;44883;52.760;6.610;2022-10-23T07:22:32;10.80;99.90
59098;DHT22;44883;52.760;6.610;2022-10-23T07:24:57;10.80;99.90
59098;DHT22;44883;52.760;6.610;2022-10-23T07:27:23;10.90;99.90
59098;DHT22;44883;52.760;6.610;2022-10-23T07:29:49;11.00;99.90
59098;DHT22;44883;52.760;6.610;2022-10-23T07:32:15;11.00;99.90
59098;DHT22;44883;52.760;6.610;2022-10-23T07:34:40;11.00;99.90
59098;DHT22;44883;52.760;6.610;2022-10-23T07:37:06;11.00;99.90
59098;DHT22;44883;52.760;6.610;2022-10-23T07:39:31;11.10;99.90
59098;DHT22;44883;52.760;6.610;2022-10-23T07:41:57;11.20;99.90
59098;DHT22;44883;52.760;6.610;2022-10-23T07:44:22;11.20;99.90
59098;DHT22;44883;52.760;6.610;2022-10-23T07:46:48;11.30;99.90
59098;DHT22;44883;52.760;6.610;2022-10-23T07:49:14;11.30;99.90
59098;DHT22;44883;52.760;6.610;2022-10-23T07:51:39;11.30;99.90
59098;DHT22;44883;52.760;6.610;2022-10-23T07:54:06;11.30;99.90
59098;DHT22;44883;52.760;6.610;2022-10-23T07:56:31;11.40;99.90
59098;DHT22;44883;52.760;6.610;2022-10-23T07:58:56;11.40;99.90
59098;DHT22;44883;52.760;6.610;2022-10-23T08:01:24;11.40;99.90
59098;DHT22;44883;52.760;6.610;2022-10-23T08:03:52;11.50;99.90
59098;DHT22;44883;52.760;6.610;2022-10-23T08:06:17;11.50;99.90
59098;DHT22;44883;52.760;6.610;2022-10-23T08:08:43;11.50;99.90
59098;DHT22;44883;52.760;6.610;2022-10-23T08:11:09;11.50;99.90
59098;DHT22;44883;52.760;6.610;2022-10-23T08:13:36;11.60;99.90
59098;DHT22;44883;52.760;6.610;2022-10-23T08:16:02;11.60;99.90
59098;DHT22;44883;52.760;6.610;2022-10-23T08:18:27;11.70;99.90
59098;DHT22;44883;52.760;6.610;2022-10-23T08:20:58;11.70;99.90
59098;DHT22;44883;52.760;6.610;2022-10-23T08:23:23;11.80;99.90
59098;DHT22;44883;52.760;6.610;2022-10-23T08:25:52;11.80;99.90
59098;DHT22;44883;52.760;6.610;2022-10-23T08:28:20;11.80;99.90
59098;DHT22;44883;52.760;6.610;2022-10-23T08:30:45;11.90;99.90
59098;DHT22;44883;52.760;6.610;2022-10-23T08:33:11;12.00;99.90
59098;DHT22;44883;52.760;6.610;2022-10-23T08:35:36;12.10;99.90
59098;DHT22;44883;52.760;6.610;2022-10-23T08:38:02;12.10;99.90
59098;DHT22;44883;52.760;6.610;2022-10-23T08:40:28;12.20;99.90
59098;DHT22;44883;52.760;6.610;2022-10-23T08:47:53;12.40;99.90
59098;DHT22;44883;52.760;6.610;2022-10-23T08:50:26;12.50;99.90
59098;DHT22;44883;52.760;6.610;2022-10-23T08:52:54;12.50;99.90
59098;DHT22;44883;52.760;6.610;2022-10-23T08:55:25;12.70;99.90
59098;DHT22;44883;52.760;6.610;2022-10-23T08:57:56;12.80;99.90
59098;DHT22;44883;52.760;6.610;2022-10-23T09:00:22;12.80;99.90
59098;DHT22;44883;52.760;6.610;2022-10-23T09:02:51;12.90;99.90
59098;DHT22;44883;52.760;6.610;2022-10-23T09:05:26;13.00;99.90
59098;DHT22;44883;52.760;6.610;2022-10-23T09:10:36;13.20;99.90
59098;DHT22;44883;52.760;6.610;2022-10-23T09:13:30;13.30;99.90
59098;DHT22;44883;52.760;6.610;2022-10-23T09:15:54;13.40;99.90
59098;DHT22;44883;52.760;6.610;2022-10-23T09:18:23;13.50;99.90
59098;DHT22;44883;52.760;6.610;2022-10-23T09:20:48;13.50;99.90
59098;DHT22;44883;52.760;6.610;2022-10-23T09:23:17;13.60;99.90
59098;DHT22;44883;52.760;6.610;2022-10-23T09:25:45;13.60;99.90
59098;DHT22;44883;52.760;6.610;2022-10-23T09:30:45;13.70;99.90
59098;DHT22;44883;52.760;6.610;2022-10-23T09:33:15;13.70;99.90
59098;DHT22;44883;52.760;6.610;2022-10-23T09:35:55;13.80;99.90
59098;DHT22;44883;52.760;6.610;2022-10-23T09:38:25;13.80;99.90
59098;DHT22;44883;52.760;6.610;2022-10-23T09:40:51;13.80;99.90
59098;DHT22;44883;52.760;6.610;2022-10-23T09:43:17;13.80;99.90
59098;DHT22;44883;52.760;6.610;2022-10-23T09:45:57;13.80;99.90
59098;DHT22;44883;52.760;6.610;2022-10-23T09:48:23;13.90;99.90
59098;DHT22;44883;52.760;6.610;2022-10-23T09:50:52;13.90;99.90
59098;DHT22;44883;52.760;6.610;2022-10-23T09:53:22;13.90;99.90
59098;DHT22;44883;52.760;6.610;2022-10-23T09:55:53;14.00;99.90
59098;DHT22;44883;52.760;6.610;2022-10-23T09:58:20;14.10;99.90
59098;DHT22;44883;52.760;6.610;2022-10-23T10:00:49;14.20;99.90
59098;DHT22;44883;52.760;6.610;2022-10-23T10:03:21;14.20;99.90
59098;DHT22;44883;52.760;6.610;2022-10-23T10:05:55;14.30;99.90
59098;DHT22;44883;52.760;6.610;2022-10-23T10:08:26;14.30;99.90
59098;DHT22;44883;52.760;6.610;2022-10-23T10:10:59;14.40;99.90
59098;DHT22;44883;52.760;6.610;2022-10-23T10:16:06;14.50;99.90
59098;DHT22;44883;52.760;6.610;2022-10-23T10:18:36;14.50;99.90
59098;DHT22;44883;52.760;6.610;2022-10-23T10:21:10;14.60;99.90
59098;DHT22;44883;52.760;6.610;2022-10-23T10:31:27;15.00;99.90
59098;DHT22;44883;52.760;6.610;2022-10-23T10:34:05;15.00;99.90
59098;DHT22;44883;52.760;6.610;2022-10-23T10:39:00;15.00;99.90
59098;DHT22;44883;52.760;6.610;2022-10-23T10:52:01;14.90;99.90
59098;DHT22;44883;52.760;6.610;2022-10-23T10:57:14;14.90;99.90
59098;DHT22;44883;52.760;6.610;2022-10-23T10:59:41;14.90;99.90
59098;DHT22;44883;52.760;6.610;2022-10-23T11:02:23;14.90;99.90
59098;DHT22;44883;52.760;6.610;2022-10-23T11:07:39;14.90;99.90
59098;DHT22;44883;52.760;6.610;2022-10-23T11:10:16;14.80;99.90
59098;DHT22;44883;52.760;6.610;2022-10-23T11:12:42;14.90;99.90
59098;DHT22;44883;52.760;6.610;2022-10-23T11:15:13;14.90;99.90
59098;DHT22;44883;52.760;6.610;2022-10-23T11:17:39;14.90;99.90
59098;DHT22;44883;52.760;6.610;2022-10-23T11:20:45;14.90;99.90
59098;DHT22;44883;52.760;6.610;2022-10-23T11:23:20;14.90;99.90
59098;DHT22;44883;52.760;6.610;2022-10-23T11:28:52;14.90;99.90
59098;DHT22;44883;52.760;6.610;2022-10-23T11:36:54;15.00;99.90
59098;DHT22;44883;52.760;6.610;2022-10-23T11:41:46;15.00;99.90
59098;DHT22;44883;52.760;6.610;2022-10-23T11:47:01;15.10;99.90
59098;DHT22;44883;52.760;6.610;2022-10-23T11:49:27;15.20;99.90
59098;DHT22;44883;52.760;6.610;2022-10-23T11:52:02;15.20;99.90
59098;DHT22;44883;52.760;6.610;2022-10-23T11:54:29;15.20;99.90
59098;DHT22;44883;52.760;6.610;2022-10-23T11:59:35;15.20;99.90
59098;DHT22;44883;52.760;6.610;2022-10-23T12:02:08;15.30;99.90
59098;DHT22;44883;52.760;6.610;2022-10-23T12:04:45;15.30;99.90
59098;DHT22;44883;52.760;6.610;2022-10-23T12:09:51;15.30;99.90
59098;DHT22;44883;52.760;6.610;2022-10-23T12:12:25;15.40;99.90
59098;DHT22;44883;52.760;6.610;2022-10-23T12:14:51;15.40;99.90
59098;DHT22;44883;52.760;6.610;2022-10-23T12:20:02;15.40;99.90
59098;DHT22;44883;52.760;6.610;2022-10-23T12:22:32;15.50;99.90
59098;DHT22;44883;52.760;6.610;2022-10-23T12:25:04;15.60;99.90
59098;DHT22;44883;52.760;6.610;2022-10-23T12:30:22;15.50;99.90
59098;DHT22;44883;52.760;6.610;2022-10-23T12:33:05;15.50;99.90
59098;DHT22;44883;52.760;6.610;2022-10-23T12:35:39;15.60;99.90
59098;DHT22;44883;52.760;6.610;2022-10-23T12:38:24;15.60;99.90
59098;DHT22;44883;52.760;6.610;2022-10-23T12:40:51;15.60;99.90
59098;DHT22;44883;52.760;6.610;2022-10-23T12:43:22;15.60;99.90
59098;DHT22;44883;52.760;6.610;2022-10-23T12:45:49;15.50;99.90
59098;DHT22;44883;52.760;6.610;2022-10-23T12:48:18;15.60;99.90
59098;DHT22;44883;52.760;6.610;2022-10-23T12:50:47;15.60;99.90
59098;DHT22;44883;52.760;6.610;2022-10-23T12:53:13;15.50;99.90
59098;DHT22;44883;52.760;6.610;2022-10-23T12:55:47;15.50;99.90
59098;DHT22;44883;52.760;6.610;2022-10-23T12:58:17;15.50;99.90
59098;DHT22;44883;52.760;6.610;2022-10-23T13:00:48;15.50;99.90
59098;DHT22;44883;52.760;6.610;2022-10-23T13:03:14;15.50;99.90
59098;DHT22;44883;52.760;6.610;2022-10-23T13:05:40;15.50;99.90
59098;DHT22;44883;52.760;6.610;2022-10-23T13:08:05;15.50;99.90
59098;DHT22;44883;52.760;6.610;2022-10-23T13:10:31;15.50;99.90
59098;DHT22;44883;52.760;6.610;2022-10-23T13:12:58;15.50;99.90
59098;DHT22;44883;52.760;6.610;2022-10-23T13:15:35;15.50;99.90
59098;DHT22;44883;52.760;6.610;2022-10-23T13:18:01;15.60;99.90
59098;DHT22;44883;52.760;6.610;2022-10-23T13:20:28;15.60;99.90
59098;DHT22;44883;52.760;6.610;2022-10-23T13:23:07;15.60;99.90
59098;DHT22;44883;52.760;6.610;2022-10-23T13:25:34;15.60;99.90
59098;DHT22;44883;52.760;6.610;2022-10-23T13:30:32;15.70;99.90
59098;DHT22;44883;52.760;6.610;2022-10-23T13:32:58;15.80;99.90
59098;DHT22;44883;52.760;6.610;2022-10-23T13:35:24;15.80;99.90
59098;DHT22;44883;52.760;6.610;2022-10-23T13:37:50;15.80;99.90
59098;DHT22;44883;52.760;6.610;2022-10-23T13:42:48;15.80;99.90
59098;DHT22;44883;52.760;6.610;2022-10-23T13:45:15;15.80;99.90
59098;DHT22;44883;52.760;6.610;2022-10-23T13:47:42;15.80;99.90
59098;DHT22;44883;52.760;6.610;2022-10-23T13:50:08;15.80;99.90
59098;DHT22;44883;52.760;6.610;2022-10-23T13:52:35;15.80;99.90
59098;DHT22;44883;52.760;6.610;2022-10-23T13:55:01;15.90;99.90
59098;DHT22;44883;52.760;6.610;2022-10-23T13:57:26;15.90;99.90
59098;DHT22;44883;52.760;6.610;2022-10-23T13:59:52;15.80;99.90
59098;DHT22;44883;52.760;6.610;2022-10-23T14:02:19;15.80;99.90
59098;DHT22;44883;52.760;6.610;2022-10-23T14:04:45;15.80;99.90
59098;DHT22;44883;52.760;6.610;2022-10-23T14:07:11;15.80;99.90
59098;DHT22;44883;52.760;6.610;2022-10-23T14:09:37;15.80;99.90
59098;DHT22;44883;52.760;6.610;2022-10-23T14:12:02;15.80;99.90
59098;DHT22;44883;52.760;6.610;2022-10-23T14:14:28;15.80;99.90
59098;DHT22;44883;52.760;6.610;2022-10-23T14:16:53;15.80;99.90
59098;DHT22;44883;52.760;6.610;2022-10-23T14:19:19;15.80;99.90
59098;DHT22;44883;52.760;6.610;2022-10-23T14:21:44;15.80;99.90
59098;DHT22;44883;52.760;6.610;2022-10-23T14:24:10;15.80;99.90
59098;DHT22;44883;52.760;6.610;2022-10-23T14:26:35;15.80;99.90
59098;DHT22;44883;52.760;6.610;2022-10-23T14:29:01;15.80;99.90
59098;DHT22;44883;52.760;6.610;2022-10-23T14:31:27;15.80;99.90
59098;DHT22;44883;52.760;6.610;2022-10-23T14:33:54;15.80;99.90
59098;DHT22;44883;52.760;6.610;2022-10-23T14:36:20;15.80;99.90
59098;DHT22;44883;52.760;6.610;2022-10-23T14:38:46;15.80;99.90
59098;DHT22;44883;52.760;6.610;2022-10-23T14:41:12;15.80;99.90
59098;DHT22;44883;52.760;6.610;2022-10-23T14:43:38;15.80;99.90
59098;DHT22;44883;52.760;6.610;2022-10-23T14:46:11;15.90;99.90
59098;DHT22;44883;52.760;6.610;2022-10-23T14:48:36;15.90;99.90
59098;DHT22;44883;52.760;6.610;2022-10-23T14:51:04;15.90;99.90
59098;DHT22;44883;52.760;6.610;2022-10-23T14:53:29;15.90;99.90
59098;DHT22;44883;52.760;6.610;2022-10-23T14:55:59;15.90;99.90
59098;DHT22;44883;52.760;6.610;2022-10-23T14:58:25;15.90;99.90
59098;DHT22;44883;52.760;6.610;2022-10-23T15:00:59;15.90;99.90
59098;DHT22;44883;52.760;6.610;2022-10-23T15:03:26;16.00;99.90
59098;DHT22;44883;52.760;6.610;2022-10-23T15:05:51;16.00;99.90
59098;DHT22;44883;52.760;6.610;2022-10-23T15:08:17;16.00;99.90
59098;DHT22;44883;52.760;6.610;2022-10-23T15:10:43;15.90;99.90
59098;DHT22;44883;52.760;6.610;2022-10-23T15:13:08;15.90;99.90
59098;DHT22;44883;52.760;6.610;2022-10-23T15:15:34;15.90;99.90
59098;DHT22;44883;52.760;6.610;2022-10-23T15:17:59;15.90;99.90
59098;DHT22;44883;52.760;6.610;2022-10-23T15:20:25;15.90;99.90
59098;DHT22;44883;52.760;6.610;2022-10-23T15:22:50;15.90;99.90
59098;DHT22;44883;52.760;6.610;2022-10-23T15:25:16;15.90;99.90
59098;DHT22;44883;52.760;6.610;2022-10-23T15:27:41;15.90;99.90
59098;DHT22;44883;52.760;6.610;2022-10-23T15:30:07;15.90;99.90
59098;DHT22;44883;52.760;6.610;2022-10-23T15:32:32;15.90;99.90
59098;DHT22;44883;52.760;6.610;2022-10-23T15:34:58;15.90;99.90
59098;DHT22;44883;52.760;6.610;2022-10-23T15:37:24;16.00;99.90
59098;DHT22;44883;52.760;6.610;2022-10-23T15:39:50;15.90;99.90
59098;DHT22;44883;52.760;6.610;2022-10-23T15:42:15;15.90;99.90
59098;DHT22;44883;52.760;6.610;2022-10-23T15:44:43;15.90;99.90
59098;DHT22;44883;52.760;6.610;2022-10-23T15:47:08;15.90;99.90
59098;DHT22;44883;52.760;6.610;2022-10-23T15:49:34;15.90;99.90
59098;DHT22;44883;52.760;6.610;2022-10-23T15:51:59;15.90;99.90
59098;DHT22;44883;52.760;6.610;2022-10-23T15:54:26;15.80;99.90
59098;DHT22;44883;52.760;6.610;2022-10-23T15:56:52;15.80;99.90
59098;DHT22;44883;52.760;6.610;2022-10-23T15:59:19;15.70;99.90
59098;DHT22;44883;52.760;6.610;2022-10-23T16:01:45;15.70;99.90
59098;DHT22;44883;52.760;6.610;2022-10-23T16:04:10;15.70;99.90
59098;DHT22;44883;52.760;6.610;2022-10-23T16:06:36;15.70;99.90
59098;DHT22;44883;52.760;6.610;2022-10-23T16:09:02;15.60;99.90
59098;DHT22;44883;52.760;6.610;2022-10-23T16:11:28;15.60;99.90
59098;DHT22;44883;52.760;6.610;2022-10-23T16:13:55;15.60;99.90
59098;DHT22;44883;52.760;6.610;2022-10-23T16:16:20;15.60;99.90
59098;DHT22;44883;52.760;6.610;2022-10-23T16:18:46;15.60;99.90
59098;DHT22;44883;52.760;6.610;2022-10-23T16:21:17;15.60;99.90
59098;DHT22;44883;52.760;6.610;2022-10-23T16:23:43;15.70;99.90
59098;DHT22;44883;52.760;6.610;2022-10-23T16:26:09;15.60;99.90
59098;DHT22;44883;52.760;6.610;2022-10-23T16:28:35;15.60;99.90
59098;DHT22;44883;52.760;6.610;2022-10-23T16:31:02;15.60;99.90
59098;DHT22;44883;52.760;6.610;2022-10-23T16:33:27;15.60;99.90
59098;DHT22;44883;52.760;6.610;2022-10-23T16:35:53;15.50;99.90
59098;DHT22;44883;52.760;6.610;2022-10-23T16:38:18;15.50;99.90
59098;DHT22;44883;52.760;6.610;2022-10-23T16:40:51;15.50;99.90
59098;DHT22;44883;52.760;6.610;2022-10-23T16:43:17;15.50;99.90
59098;DHT22;44883;52.760;6.610;2022-10-23T16:45:42;15.50;99.90
59098;DHT22;44883;52.760;6.610;2022-10-23T16:48:08;15.50;99.90
59098;DHT22;44883;52.760;6.610;2022-10-23T16:50:33;15.50;99.90
59098;DHT22;44883;52.760;6.610;2022-10-23T16:52:59;15.60;99.90
59098;DHT22;44883;52.760;6.610;2022-10-23T16:55:24;15.50;99.90
59098;DHT22;44883;52.760;6.610;2022-10-23T16:57:49;15.60;99.90
59098;DHT22;44883;52.760;6.610;2022-10-23T17:00:15;15.60;99.90
59098;DHT22;44883;52.760;6.610;2022-10-23T17:02:42;15.60;99.90
59098;DHT22;44883;52.760;6.610;2022-10-23T17:05:08;15.50;99.90